This is the latest recevied weather packets stored in our database for station/object N5COP-13. If no packets are shown the sender has not sent any weather packets the latest 10 day(s).
| Time | Temp. | Humidity | Pressure | Rain* | Wind** | Luminosity | Snow |
|---|---|---|---|---|---|---|---|
| 1777811270 | 7.78° C | 78% | 1020.4 hPa | 0 mm | - | 36 W/m² | - |
| 1777810968 | 7.22° C | 78% | 1020.6 hPa | 0 mm | - | 28 W/m² | - |
| 1777810664 | 7.22° C | 79% | 1020.3 hPa | 0 mm | - | 23 W/m² | - |
| 1777810361 | 6.67° C | 79% | 1020.3 hPa | 0 mm | - | 17 W/m² | - |
| 1777810057 | 6.67° C | 78% | 1020.3 hPa | 0 mm | - | 12 W/m² | - |
| 1777809755 | 6.67° C | 78% | 1020.2 hPa | 0 mm | - | 8 W/m² | - |
| 1777809452 | 6.67° C | 79% | 1020.1 hPa | 0 mm | - | 5 W/m² | - |
| 1777809150 | 6.67° C | 79% | 1020.3 hPa | 0 mm | - | 2 W/m² | - |
| 1777808848 | 6.67° C | 79% | 1020.2 hPa | 0 mm | - | 1 W/m² | - |
| 1777808544 | 6.67° C | 80% | 1020.1 hPa | 0 mm | - | 0 W/m² | - |
| 1777808241 | 6.11° C | 79% | 1020.2 hPa | 0 mm | - | 0 W/m² | - |
| 1777807940 | 6.11° C | 78% | 1020.2 hPa | 0 mm | - | 0 W/m² | - |
| 1777807637 | 6.67° C | 78% | 1020.1 hPa | 0 mm | - | 0 W/m² | - |
| 1777807334 | 6.67° C | 78% | 1020.2 hPa | 0 mm | - | 0 W/m² | - |
| 1777807030 | 6.67° C | 77% | 1020.2 hPa | 0 mm | - | 0 W/m² | - |
| 1777806727 | 7.22° C | 77% | 1020.3 hPa | 0 mm | - | 0 W/m² | - |
| 1777806423 | 7.22° C | 78% | 1020.3 hPa | 0 mm | - | 0 W/m² | - |
| 1777806120 | 7.22° C | 77% | 1020.4 hPa | 0 mm | - | 0 W/m² | - |
| 1777805816 | 7.22° C | 77% | 1020.6 hPa | 0 mm | - | 0 W/m² | - |
| 1777805514 | 7.22° C | 77% | 1020.4 hPa | 0 mm | - | 0 W/m² | - |
| 1777805211 | 7.22° C | 76% | 1020.4 hPa | 0 mm | - | 0 W/m² | - |
| 1777804909 | 7.22° C | 76% | 1020.7 hPa | 0 mm | - | 0 W/m² | - |
| 1777804607 | 7.22° C | 76% | 1020.4 hPa | 0 mm | - | 0 W/m² | - |
| 1777804305 | 7.22° C | 75% | 1020.4 hPa | 0 mm | - | 0 W/m² | - |
| 1777804001 | 7.78° C | 75% | 1020.4 hPa | 0 mm | - | 0 W/m² | - |
* Rain latest hour (hover to see other rain measurements)
** Current wind speed in m/s (hover to see current wind gust speed)